Tiempo atmosférico en la estación meteorológica de Robledo De Chavela, Madrid (790 m.)



Fecha
DESCASC
Temp. máxima en grados centígrados (hora)
DESCASC
Temp. mínima en grados centígrados (hora)
DESCASC
Temp. media en grados centígrados
DESCASC
Racha de viento máxima en m/sg (hora)
DESCASC
Velocidad máxima media en intervalos de 10 minutos(hora)
DESCASC
Precipitaciones diarias en mm
DESCASC
Precipitaciones de 00:00 a 06:00 en mm
DESCASC
Precipitaciones de 06:00 a 12:00 en mm
DESCASC
Precipitaciones de 12:00 a 18:00 en mm
DESCASC
Precipitaciones de 18:00 a 24:00 en mm
DESCASC
16-06-2019 28.1 (17:30) 11 (07:00) 19.6 7.78 (13:10) 3.89 (17:30) 0 0 0 0 0
15-06-2019 24.3 (17:40) 10.6 (07:00) 17.4 11.67 (12:10) 4.17 (19:00) 0 0 0 0 0
14-06-2019 22.5 (17:10) 11.4 (05:50) 16.9 11.67 (14:30) 5.83 (16:30) 0 0 0 0 0
13-06-2019 26 (16:10) 11.1 (00:00) 18.6 10.83 (16:30) 5 (14:10) 0 0 0 0 0
12-06-2019 23.9 (17:50) 5.9 (00:00) 14.9 9.17 (17:50) 4.44 (18:40) 0 0 0 0 0
11-06-2019 19.8 (16:00) 11.3 (00:00) 15.5 13.61 (02:40) 5.83 (06:10) 0 0 0 0 0
10-06-2019 24.7 (17:30) 12.2 (00:00) 18.5 12.22 (01:10) 5.83 (05:50) 0 0 0 0 0
09-06-2019 25.7 (17:00) 11.8 (00:00) 18.8 12.22 (18:00) 5.83 (12:30) 0 0 0 0 0
08-06-2019 26.3 (17:30) 8.2 (00:00) 17.2 9.17 (14:10) 3.89 (12:20) 0 0 0 0 0
07-06-2019 21.3 (19:40) 8.3 (00:00) 14.8 13.33 (02:30) 7.78 (02:30) 0.5 0.5 0 0 0
06-06-2019 21.4 (15:40) 6.8 (00:00) 14.1 11.94 (17:40) 6.39 (14:40) 0 0 0 0 0
05-06-2019 20.3 (19:10) 10.5 (00:00) 15.4 12.78 (04:30) 5.56 (04:20) 0 0 0 0 0
04-06-2019 26.4 (16:10) 17.4 (00:00) 21.9 11.94 (17:40) 7.22 (16:00) 0 0 0 0 0
03-06-2019 31.1 (17:50) 17.3 (00:00) 24.2 13.61 (16:20) 5.83 (14:50) 0 0 0 0 0
02-06-2019 32.8 (17:20) 17.5 (00:00) 25.1 8.89 (16:20) 4.72 (19:10) -- -- 0 0 0
01-06-2019 32.1 (17:20) 15.6 (00:00) 23.8 6.39 (18:10) 3.33 (17:30) 0 0 0 0 0
31-05-2019 -- (--) -- (--) -- -- (--) -- (--) -- -- -- -- 0
30-05-2019 -- (--) -- (--) -- -- (--) -- (--) -- -- -- -- --
29-05-2019 -- (--) -- (--) -- -- (--) -- (--) -- -- -- -- --
28-05-2019 -- (--) -- (--) -- -- (--) -- (--) -- -- -- -- --
27-05-2019 -- (--) -- (--) -- -- (--) -- (--) -- -- -- -- --
26-05-2019 -- (--) -- (--) -- -- (--) -- (--) -- -- -- -- --
25-05-2019 -- (--) -- (--) -- -- (--) -- (--) -- -- -- -- --
24-05-2019 -- (--) -- (--) -- -- (--) -- (--) -- -- -- -- --
23-05-2019 -- (--) -- (--) -- -- (--) -- (--) -- 0 -- -- --
22-05-2019 -- (--) -- (--) -- -- (--) -- (--) -- -- 0 0 0
21-05-2019 -- (--) -- (--) -- -- (--) -- (--) -- -- -- -- --

Gráficas

Temp. máximas Temp. mínimas Temp. medias Precipitaciones Rachas de viento máximas Velocidades máximas media en intervalos de 10 minutos

Datos horarios

Fecha y hora oficial Temperatura (ºC) Velocidad del viento (km/h) Dirección del viento Racha (km/h) Dirección de racha Precipitación (mm) Presión (hPa) Tendencia (hPa) Humedad (%)
2019-06-19 23:00:00 19.1 0 Calma 7 Sudoeste 0 927.4 1 46
2019-06-19 22:00:00 21.3 3 Noroeste 13 Oeste 0 927 0.6 42
2019-06-19 21:00:00 22.5 9 Oeste 24 Oeste 0 926.8 0.4 40
2019-06-19 20:00:00 24 12 Oeste 33 Sudoeste 0 926.4 -0.3 38
2019-06-19 19:00:00 25.4 15 Sudoeste 40 Sudoeste 0 926.4 -0.8 36
2019-06-19 18:00:00 24.7 20 Sudoeste 34 Sudoeste 0 926.4 -1.1 36
2019-06-19 17:00:00 24.6 14 Oeste 36 Sudoeste 0 926.7 -1 38
2019-06-19 16:00:00 24.7 19 Sudoeste 37 Sudoeste 0 927.2 -0.8 39
2019-06-19 15:00:00 22.9 15 Sudoeste 34 Sudoeste 0 927.5 -0.7 42
2019-06-19 14:00:00 22.5 18 Sudoeste 31 Sur 0 927.7 -0.2 44
2019-06-19 13:00:00 22.2 18 Sudoeste 37 Sudoeste 0 928 0.2 45
2019-06-19 12:00:00 21.4 14 Sudoeste 40 Sur 0 928.2 0.4 46
2019-06-19 11:00:00 20.8 17 Sudoeste 29 Sur 0 927.9 0.4 48
2019-06-19 10:00:00 19.6 8 Oeste 22 Oeste 0 927.8 0.3 54
2019-06-19 09:00:00 18.2 10 Oeste 19 Sudoeste 0 927.8 0.5 58
2019-06-19 08:00:00 17.4 8 Noroeste 28 Oeste 0 927.5 0.3 60
2019-06-19 07:00:00 15.8 12 Oeste 21 Oeste 0 927.5 0.5 63
2019-06-19 06:00:00 17.1 14 Oeste 28 Sudoeste 0 927.3 0.2 59
2019-06-19 05:00:00 17.9 12 Oeste 26 Noroeste 0 927.2 -0.1 60
2019-06-19 04:00:00 18 9 Oeste 22 Oeste 0 927 -0.5 60
2019-06-19 03:00:00 18.5 12 Oeste 21 Oeste 0 927.1 -0.3 57
2019-06-19 02:00:00 19.3 9 Oeste 21 Oeste 0 927.3 -0.1 51
2019-06-19 01:00:00 19.7 9 Oeste 17 Oeste 0 927.5 0.4 45
2019-06-19 00:00:00 20.4 8 Oeste 16 Oeste 0 927.4 0.4 41
2019-06-18 23:00:00 21 5 Noroeste 18 Oeste 0 927.4 0.9 39
2019-06-18 22:00:00 21.9 6 Oeste 22 Sudoeste 0 927.1 0.9 37
2019-06-18 21:00:00 23.2 8 Oeste 36 Oeste 0 927 1 36
2019-06-18 20:00:00 24.2 12 Oeste 35 Noroeste 0 926.5 0.4 33
2019-06-18 19:00:00 25.5 18 Oeste 42 Oeste 0 926.2 -0.1 29
2019-06-18 18:00:00 26.2 13 Oeste 40 Sudoeste 0 926 -0.7 22
2019-06-18 17:00:00 27.2 15 Oeste 35 Oeste 0 926.1 -0.9 20
2019-06-18 16:00:00 27 19 Sudoeste 40 Sudoeste 0 926.3 -1 17
2019-06-18 15:00:00 26.3 15 Sudoeste 38 Sudoeste 0 926.7 -0.7 20
2019-06-18 14:00:00 26.2 14 Sudoeste 35 Sudoeste 0 927 -0.4 21
2019-06-18 13:00:00 25.3 13 Sudoeste 35 Sudoeste 0 927.3 -0.4 23
2019-06-18 12:00:00 23.5 6 Oeste 19 Sur 0 927.4 -0.1 29
2019-06-18 11:00:00 22.6 8 Sudoeste 23 Oeste 0 927.4 0.5 31
2019-06-18 10:00:00 20.8 11 Oeste 28 Oeste 0 927.7 1.1 32
2019-06-18 09:00:00 20.4 12 Sudoeste 26 Oeste 0 927.5 1.3 33
2019-06-18 08:00:00 19.9 13 Oeste 27 Oeste 0 926.9 0.7 30
2019-06-18 07:00:00 18.7 9 Oeste 23 Oeste 0 926.6 0.2 29
2019-06-18 06:00:00 20.8 11 Oeste 24 Oeste 0 926.2 -0.3 27
2019-06-18 05:00:00 21.3 11 Oeste 21 Oeste 0 926.2 -0.7 27
2019-06-18 04:00:00 17.5 0 Calma 8 Nordeste 0 926.4 -0.7 30
2019-06-18 03:00:00 20.4 2 Norte 10 Este 0 926.5 -0.5 27
2019-06-18 02:00:00 22 2 Noroeste 10 Noroeste 0 926.9 0.1 26
2019-06-18 01:00:00 23.6 5 Noroeste 12 Oeste 0 927.1 0.5 24
2019-06-18 00:00:00 23.7 6 Noroeste 13 Noroeste 0 927 0.4 23
2019-06-17 23:00:00 24.7 5 Noroeste 12 Noroeste 0 926.8 0.5 23
2019-06-17 22:00:00 25.4 4 Noroeste 19 Oeste 0 926.6 0.2 22
2019-06-17 21:00:00 26.7 9 Oeste 22 Oeste 0 926.6 -0.3 20
2019-06-17 20:00:00 27.7 9 Oeste 20 Oeste 0 926.3 -1.1 21
2019-06-17 19:00:00 29.1 5 Oeste 29 Sudoeste 0 926.4 -1.8 21
2019-06-17 18:00:00 29.4 11 Sudoeste 30 Sudoeste 0 926.9 -1.7 21
2019-06-17 17:00:00 28.2 10 Sudoeste 31 Sudoeste 0 927.4 -1.9 21
2019-06-17 16:00:00 28 14 Sudoeste 31 Oeste 0 928.2 -1.7 21
2019-06-17 15:00:00 27.5 9 Sudoeste 28 Sudoeste 0 928.6 -1.4 22
2019-06-17 14:00:00 27.2 12 Sudoeste 28 Sudoeste 0 929.3 -0.8 24
2019-06-17 13:00:00 25.9 9 Sudoeste 30 Sudoeste 0 929.9 -0.3 26
2019-06-17 12:00:00 25 9 Sudeste 17 Sudeste 0 930 -0.2 28
2019-06-17 11:00:00 24.3 4 Sudeste 15 Sudeste 0 930.1 0 31
2019-06-17 10:00:00 22.5 5 Este 15 Sudeste 0 930.2 0.6 32
2019-06-17 09:00:00 20.8 2 Sudeste 6 Sudeste 0 930.2 0.8 33
2019-06-17 08:00:00 16.3 2 Nordeste 6 Nordeste 0 930.1 0.7 39
2019-06-17 07:00:00 12.5 0 Calma 6 Nordeste 0 929.6 -0.1 41
2019-06-17 06:00:00 13.1 0 Calma 4 Nordeste 0 929.4 0.1 39
2019-06-17 05:00:00 13.8 3 Nordeste 6 Nordeste 0 929.4 -0.2 36
2019-06-17 04:00:00 16.9 0 Calma 13 Este 0 929.7 -0.2 31
2019-06-17 03:00:00 17.2 2 Sudeste 12 Norte 0 929.3 -0.5 30
2019-06-17 02:00:00 22 6 Norte 14 Norte 0 929.6 -0.2 26
2019-06-17 01:00:00 18.8 0 Calma 19 Noroeste 0 929.9 0.7 27
2019-06-17 00:00:00 22.9 7 Norte 18 Norte 0 929.8 0.9 25
2019-06-16 23:00:00 21.4 8 Noroeste 14 Noroeste 0 929.8 0.9 26
2019-06-16 22:00:00 22.4 8 Noroeste 16 Oeste 0 929.2 0.3 24
2019-06-16 21:00:00 24.7 8 Oeste 18 Sudoeste 0 928.9 -0.1 23
2019-06-16 20:00:00 25.4 9 Oeste 19 Sudoeste 0 928.9 -0.5 22
2019-06-16 19:00:00 26.2 10 Oeste 26 Sudoeste 0 928.9 -1 21
2019-06-16 18:00:00 26.7 11 Sudoeste 27 Sudoeste 0 929 -1.3 21
2019-06-16 17:00:00 27.4 13 Sudoeste 24 Sudoeste 0 929.4 -1.4 21
2019-06-16 16:00:00 25 7 Sur 23 Sur 0 929.9 -0.9 23
2019-06-16 15:00:00 25 10 Sur 24 Sudoeste 0 930.3 -0.8 24
2019-06-16 14:00:00 24.3 12 Sur 28 Sudeste 0 930.8 -0.7 26
2019-06-16 13:00:00 24.2 7 Sudoeste 22 Sudeste 0 930.8 -1 26
2019-06-16 12:00:00 23.3 8 Sudeste 18 Sudeste 0 931.1 -0.3 28
2019-06-16 11:00:00 21.6 9 Sudeste 22 Sudeste 0 931.5 0.5 30
2019-06-16 10:00:00 19.8 13 Este 22 Sudeste 0 931.8 1 35
2019-06-16 09:00:00 18.4 2 Sur 7 Sudeste 0 931.4 0.9 39
2019-06-16 08:00:00 14.9 0 Calma 3 Norte 0 931 0.3 44
2019-06-16 07:00:00 11.2 0 Calma 4 Noroeste 0 930.8 0.2 48
2019-06-16 06:00:00 11.9 0 Calma 7 Nordeste 0 930.5 -0.1 47
2019-06-16 05:00:00 12.6 3 Nordeste 12 Nordeste 0 930.7 -0.4 46
2019-06-16 04:00:00 12.3 3 Nordeste 6 Nordeste 0 930.6 -1 47
2019-06-16 03:00:00 13 4 Nordeste 6 Nordeste 0 930.6 -0.8 44
2019-06-16 02:00:00 13.4 0 Calma 3 Norte 0 931.1 0 43
2019-06-16 01:00:00 14.3 0 Calma 5 Norte 0 931.6 1.1 41
2019-06-16 00:00:00 14.6 0 Calma 5 Nordeste 0 931.4 1.3 38
2019-06-15 23:00:00 16.8 2 Nordeste 4 Noroeste 0 931.1 1.3 33
2019-06-15 22:00:00 19.3 3 Noroeste 14 Sudoeste 0 930.5 0.9 29
2019-06-15 21:00:00 22.3 10 Sudoeste 24 Sudoeste 0 930.1 0.3 26
2019-06-15 20:00:00 23.4 11 Sur 24 Sur 0 929.8 -0.6 26
2019-06-15 19:00:00 23.5 15 Sur 28 Sur 0 929.6 -1 27
2019-06-15 18:00:00 23.6 10 Sur 27 Sudeste 0 929.8 -1.1 28
2019-06-15 17:00:00 22.9 15 Sur 30 Sur 0 930.4 -0.9 29
2019-06-15 16:00:00 22.7 12 Sur 26 Sudoeste 0 930.6 -0.6 29
2019-06-15 15:00:00 21.5 9 Sur 24 Sudoeste 0 930.9 -0.7 30
2019-06-15 14:00:00 20.9 10 Sur 26 Sudoeste 0 931.3 -0.3 30
2019-06-15 13:00:00 19.3 6 Noroeste 42 Oeste 0 931.2 -0.4 32
2019-06-15 12:00:00 17.7 8 Sudoeste 26 Sudoeste 0 931.6 0.4 37
2019-06-15 11:00:00 16.2 4 Oeste 19 Noroeste 0 931.6 0.5 42
2019-06-15 10:00:00 14.6 11 Noroeste 29 Norte 0 931.6 0.7 46
2019-06-15 09:00:00 13 12 Noroeste 22 Noroeste 0 931.2 0.8 54
2019-06-15 08:00:00 11.3 10 Norte 29 Norte 0 931.1 0.8 59
2019-06-15 07:00:00 10.6 12 Norte 25 Norte 0 930.9 0.8 60
2019-06-15 06:00:00 11.3 8 Norte 24 Norte 0 930.4 0.6 56
2019-06-15 05:00:00 11.6 6 Norte 30 Norte 0 930.3 0.6 54
2019-06-15 04:00:00 12.1 9 Norte 27 Norte 0 930.1 0.6 50
2019-06-15 03:00:00 12.5 9 Norte 24 Noroeste 0 929.8 0.8 47
2019-06-15 02:00:00 13.4 6 Norte 26 Noroeste 0 929.7 1.3 43
2019-06-15 01:00:00 14.7 14 Noroeste 25 Noroeste 0 929.5 2.1 39
2019-06-15 00:00:00 15 9 Oeste 20 Oeste 0 929 2.3 37
2019-06-14 23:00:00 16 11 Oeste 25 Oeste 0 928.4 2.3 34
2019-06-14 22:00:00 17 10 Oeste 36 Sudoeste 0 927.4 1.9 33
2019-06-14 21:00:00 18.2 14 Oeste 41 Sudoeste 0 926.7 1.2 31
2019-06-14 20:00:00 19.3 15 Oeste 37 Sudoeste 0 926.1 0.8 29
2019-06-14 19:00:00 20.7 17 Sudoeste 37 Oeste 0 925.5 -0.1 26
2019-06-14 18:00:00 20.8 17 Oeste 39 Sudoeste 0 925.5 -0.1 27
2019-06-14 17:00:00 21.3 19 Oeste 38 Oeste 0 925.3 -0.2 27
2019-06-14 16:00:00 21.5 16 Oeste 37 Oeste 0 925.6 0.4 28
2019-06-14 15:00:00 20.9 18 Oeste 42 Sudoeste 0 925.6 0.3 29
2019-06-14 14:00:00 21.2 10 Oeste 40 Oeste 0 925.5 0.3 28
2019-06-14 13:00:00 20.2 14 Oeste 34 Oeste 0 925.2 0.1 31
2019-06-14 12:00:00 18.6 19 Oeste 39 Oeste 0 925.3 0.8 33
2019-06-14 11:00:00 17.6 13 Oeste 33 Oeste 0 925.2 1.2 33
2019-06-14 10:00:00 17.8 12 Oeste 27 Sur 0 925.1 1.6 31
2019-06-14 09:00:00 17.4 10 Oeste 28 Oeste 0 924.5 1.1 30
2019-06-14 08:00:00 16.2 12 Oeste 26 Oeste 0 924 0.8 34
2019-06-14 07:00:00 14.6 9 Oeste 20 Oeste 0 923.5 0.5 34
2019-06-14 06:00:00 11.7 0 Calma 6 Oeste 0 923.4 0 33
2019-06-14 05:00:00 12.8 3 Sudoeste 8 Sudeste 0 923.2 -0.1 31
2019-06-14 04:00:00 14.8 2 Sudeste 9 Oeste 0 923 0.2 29
2019-06-14 03:00:00 14.9 0 Calma 9 Sudoeste 0 923.4 0.6 29
2019-06-14 02:00:00 16.7 3 Sudoeste 15 Noroeste 0 923.3 0.7 27
2019-06-14 01:00:00 19.6 8 Noroeste 26 Noroeste 0 922.8 0.5 24
2019-06-14 00:00:00 20.9 13 Norte 29 Noroeste 0 922.8 0.8 23
2019-06-13 23:00:00 20.8 14 Noroeste 31 Norte 0 922.6 1 22
2019-06-13 22:00:00 21 16 Noroeste 28 Noroeste 0 922.3 1 23
2019-06-13 21:00:00 21.7 10 Noroeste 25 Oeste 0 922 0.5 23
2019-06-13 20:00:00 22.9 8 Oeste 30 Oeste 0 921.6 -0.1 23
2019-06-13 19:00:00 24.7 9 Sudoeste 30 Sudoeste 0 921.3 -0.6 23
2019-06-13 18:00:00 25 13 Sudoeste 30 Sur 0 921.5 -0.8 21
2019-06-13 17:00:00 24.4 15 Sudoeste 39 Sudoeste 0 921.7 -1.2 22
2019-06-13 16:00:00 25.1 12 Sudoeste 31 Sudoeste 0 921.9 -1.6 22
2019-06-13 15:00:00 24.5 13 Sur 33 Sudoeste 0 922.3 -1.8 24
2019-06-13 14:00:00 22.9 13 Sur 32 Sudoeste 0 922.9 -0.9 27
2019-06-13 13:00:00 22 10 Sur 23 Sudeste 0 923.5 -0.5 32
2019-06-13 12:00:00 20.2 8 Sudeste 24 Este 0 924.1 0.4 39
2019-06-13 11:00:00 18.3 10 Este 24 Sudeste 0 923.8 0.2 50
2019-06-13 10:00:00 16.9 11 Este 24 Este 0 924 0.6 54
2019-06-13 09:00:00 15 11 Este 23 Este 0 923.7 0.7 60
2019-06-13 08:00:00 12.7 11 Nordeste 19 Nordeste 0 923.6 1 62
2019-06-13 07:00:00 11.3 7 Nordeste 17 Nordeste 0 923.4 0.9 60
2019-06-13 06:00:00 12.2 6 Nordeste 12 Nordeste 0 923 0.8 56
2019-06-13 05:00:00 12.2 6 Nordeste 20 Nordeste 0 922.6 0.2 44
2019-06-13 04:00:00 12.9 9 Nordeste 15 Nordeste 0 922.5 0 30
2019-06-13 03:00:00 11.9 0 Calma 5 Nordeste 0 922.2 -0.6 30
2019-06-13 02:00:00 12.7 2 Nordeste 4 Nordeste 0 922.4 -0.6 28
2019-06-13 01:00:00 13.6 0 Calma 3 Nordeste 0 922.5 -0.2 27
2019-06-13 00:00:00 14.9 0 Calma 10 Norte 0 922.8 0.3 25
2019-06-12 23:00:00 17.6 7 Noroeste 14 Oeste 0 923 0.6 23
2019-06-12 22:00:00 19.1 6 Noroeste 20 Oeste 0 922.7 0.2 21
2019-06-12 21:00:00 21.7 10 Sudoeste 31 Oeste 0 922.5 -0.3 19
2019-06-12 20:00:00 22.7 9 Oeste 32 Oeste 0 922.4 -0.8 19
2019-06-12 19:00:00 22.7 13 Oeste 30 Sudoeste 0 922.5 -1.4 17
2019-06-12 18:00:00 23.3 14 Sudoeste 33 Sur 0 922.8 -2.2 19
2019-06-12 17:00:00 23.1 6 Sudoeste 30 Sur 0 923.2 -2.3 22
2019-06-12 16:00:00 22.3 9 Sur 26 Sur 0 923.9 -2.2 23
2019-06-12 15:00:00 20.7 10 Sudoeste 26 Sur 0 925 -1.7 26
2019-06-12 14:00:00 20.2 5 Oeste 23 Sur 0 925.5 -1.4 29
2019-06-12 13:00:00 19.1 7 Sur 26 Sur 0 926.1 -0.7 32
2019-06-12 12:00:00 16.9 9 Sudeste 26 Sudoeste 0 926.7 -0.3 38
2019-06-12 11:00:00 15.8 7 Sur 18 Sudeste 0 926.9 0.3 41
2019-06-12 10:00:00 15.3 5 Sudeste 15 Este 0 926.8 0.5 41
2019-06-12 09:00:00 13.4 0 Calma 6 Sudoeste 0 927 0.9 42
2019-06-12 08:00:00 9.8 0 Calma 6 Norte 0 926.6 0.4 49
2019-06-12 07:00:00 6.4 2 Este 6 Este 0 926.3 -0.1 52
2019-06-12 06:00:00 6.8 0 Calma 6 Nordeste 0 926.1 -0.5 50
2019-06-12 05:00:00 7.7 2 Nordeste 9 Nordeste 0 926.2 -0.6 47
2019-06-12 04:00:00 8.6 3 Norte 10 Noroeste 0 926.4 -0.6 46
2019-06-12 03:00:00 8.7 0 Calma 5 Sur 0 926.6 -0.5 44
2019-06-12 02:00:00 11.4 0 Calma 22 Norte 0 926.8 -0.3 39
2019-06-12 01:00:00 11.3 2 Sur 7 Nordeste 0 927 0.4 38
2019-06-12 00:00:00 11.3 0 Calma 8 Nordeste 0 927.1 0.7 34
2019-06-11 23:00:00 13.3 6 Nordeste 8 Nordeste 0 927.1 1.2 32
2019-06-11 22:00:00 15 4 Nordeste 17 Norte 0 926.6 1 30
2019-06-11 21:00:00 17.6 6 Nordeste 22 Nordeste 0 926.4 0.9 27
2019-06-11 20:00:00 18.9 9 Nordeste 24 Nordeste 0 925.9 -0.1 26
2019-06-11 19:00:00 19.3 10 Nordeste 30 Norte 0 925.6 -0.3 25
2019-06-11 18:00:00 18.7 10 Nordeste 30 Nordeste 0 925.5 -0.3 25
2019-06-11 17:00:00 18.1 13 Nordeste 42 Nordeste 0 926 0.3 28
2019-06-11 16:00:00 19.4 8 Nordeste 40 Este 0 925.9 0.7 29
2019-06-11 15:00:00 18.2 14 Nordeste 38 Nordeste 0 925.8 0.7 30
2019-06-11 14:00:00 18.4 14 Nordeste 42 Norte 0 925.7 1 33
2019-06-11 13:00:00 16.5 6 Norte 41 Norte 0 925.2 0.7 36
2019-06-11 12:00:00 15.5 12 Norte 43 Nordeste 0 925.1 0.9 42
2019-06-11 11:00:00 13.5 12 Nordeste 35 Nordeste 0 924.7 0.8 48
2019-06-11 10:00:00 13.2 4 Norte 36 Norte 0 924.5 0.8 51
2019-06-11 09:00:00 13.4 14 Norte 47 Norte 0 924.2 0.6 51
2019-06-11 08:00:00 12.9 15 Norte 35 Norte 0 923.9 -0.1 51
2019-06-11 07:00:00 12.8 11 Noroeste 38 Norte 0 923.7 -0.7 52
2019-06-11 06:00:00 13.7 21 Noroeste 47 Noroeste 0 923.6 -1.2 47
2019-06-11 05:00:00 14.6 16 Norte 47 Noroeste 0 924 -1.2 42
2019-06-11 04:00:00 15.1 16 Norte 45 Norte 0 924.4 -1.5 39
2019-06-11 03:00:00 15.9 17 Norte 49 Norte 0 924.8 -1.1 36
2019-06-11 02:00:00 16.7 17 Norte 36 Norte 0 925.2 -0.5 29
2019-06-11 01:00:00 17.6 14 Norte 33 Norte 0 925.9 0.6 25
2019-06-11 00:00:00 18.5 14 Norte 31 Norte 0 925.9 0.8 25
2019-06-10 23:00:00 19.7 9 Norte 29 Noroeste 0 925.7 0.5 24
2019-06-10 22:00:00 20.7 8 Norte 25 Norte 0 925.3 -0.4 23
2019-06-10 21:00:00 22.3 8 Norte 26 Noroeste 0 925.1 -1.1 21
2019-06-10 20:00:00 23.5 6 Norte 20 Nordeste 0 925.2 -1.4 21
2019-06-10 19:00:00 23.7 10 Norte 26 Norte 0 925.7 -1.4 22
2019-06-10 18:00:00 23.8 9 Norte 33 Noroeste 0 926.2 -1.5 23
2019-06-10 17:00:00 24 7 Norte 29 Noroeste 0 926.6 -1.8 24
2019-06-10 16:00:00 24.1 3 Noroeste 30 Oeste 0 927.1 -1.6 25
2019-06-10 15:00:00 21.4 10 Norte 29 Noroeste 0 927.7 -1.5 28
2019-06-10 14:00:00 21.2 11 Norte 36 Oeste 0 928.4 -0.6 29
2019-06-10 13:00:00 20.7 6 Noroeste 26 Noroeste 0 928.7 -0.5 32
2019-06-10 12:00:00 19.6 9 Norte 31 Norte 0 929.2 0.2 35
2019-06-10 11:00:00 18 10 Noroeste 28 Noroeste 0 929 0.4 39
2019-06-10 10:00:00 17.3 10 Noroeste 29 Noroeste 0 929.2 0.5 44
2019-06-10 09:00:00 14.7 17 Noroeste 30 Noroeste 0 929 0.6 53
2019-06-10 08:00:00 13 20 Noroeste 35 Norte 0 928.6 0 58
2019-06-10 07:00:00 12.4 18 Noroeste 33 Norte 0 928.7 -0.6 57
2019-06-10 06:00:00 12.8 21 Noroeste 32 Noroeste 0 928.4 -1 52
2019-06-10 05:00:00 13.2 18 Noroeste 36 Noroeste 0 928.6 -0.9 49
2019-06-10 04:00:00 14.2 11 Norte 30 Norte 0 929.3 0.1 45
2019-06-10 03:00:00 14.9 11 Noroeste 36 Norte 0 929.4 0.4 42
2019-06-10 02:00:00 15.8 13 Norte 44 Norte 0 929.5 0.7 39
2019-06-10 01:00:00 16.8 15 Norte 38 Norte 0 929.2 1.2 35
2019-06-10 00:00:00 18 15 Norte 41 Norte 0 929 1.7 31
2019-06-09 23:00:00 19.1 9 Norte 41 Norte 0 928.8 2.1 27
2019-06-09 22:00:00 20.4 9 Norte 33 Norte 0 928 1.6 24
2019-06-09 21:00:00 22 10 Noroeste 23 Norte 0 927.3 0.8 22
2019-06-09 20:00:00 23 8 Norte 35 Sudoeste 0 926.7 0 20
2019-06-09 19:00:00 24.2 13 Sudoeste 28 Oeste 0 926.4 -0.6 20
2019-06-09 18:00:00 25.2 15 Oeste 44 Sudoeste 0 926.5 -1.3 17
2019-06-09 17:00:00 24.5 15 Sudoeste 30 Sudoeste 0 926.7 -1.6 17
2019-06-09 16:00:00 24.5 14 Sudoeste 33 Sudoeste 0 927 -1.8 15
2019-06-09 15:00:00 23.4 15 Oeste 36 Sudoeste 0 927.8 -1.3 15
2019-06-09 14:00:00 23.6 17 Sudoeste 34 Oeste 0 928.3 -1.1 15
2019-06-09 13:00:00 22.2 18 Sudoeste 37 Sudoeste 0 928.8 -0.5 15
2019-06-09 12:00:00 21.7 13 Sudoeste 27 Noroeste 0 929.1 -0.4 17
2019-06-09 11:00:00 20.6 12 Oeste 33 Sudoeste 0 929.4 0.1 27
2019-06-09 10:00:00 18.6 6 Sudoeste 13 Sur 0 929.3 0 41
2019-06-09 09:00:00 17.1 5 Este 9 Este 0 929.5 0.6 52
2019-06-09 08:00:00 15 4 Este 9 Nordeste 0 929.3 0.1 60
2019-06-09 07:00:00 12.6 5 Nordeste 11 Nordeste 0 929.3 -0.1 65
2019-06-09 06:00:00 12.6 0 Calma 11 Nordeste 0 928.9 -0.5 62
2019-06-09 05:00:00 14 5 Nordeste 10 Nordeste 0 929.2 -0.3 56
2019-06-09 04:00:00 15 5 Nordeste 10 Nordeste 0 929.4 0.3 51
2019-06-09 03:00:00 16.3 4 Nordeste 7 Nordeste 0 929.4 0.3 36
2019-06-09 02:00:00 18.1 3 Noroeste 9 Sudeste 0 929.5 0.3 22
2019-06-09 01:00:00 20.4 8 Noroeste 19 Norte 0 929.1 0.3 19
2019-06-09 00:00:00 21.5 11 Noroeste 19 Noroeste 0 929.1 0.6 18
2019-06-08 23:00:00 21.4 6 Noroeste 14 Noroeste 0 929.2 0.9 19
2019-06-08 22:00:00 21.4 6 Noroeste 17 Oeste 0 928.8 0.7 18
2019-06-08 21:00:00 23.1 9 Oeste 24 Sudoeste 0 928.5 0 17
2019-06-08 20:00:00 24.9 11 Sudoeste 27 Sudoeste 0 928.3 -0.4 17
2019-06-08 19:00:00 26 10 Sudoeste 25 Sudoeste 0 928.1 -1.4 17
2019-06-08 18:00:00 25.4 10 Oeste 23 Sudoeste 0 928.5 -1.6 19
2019-06-08 17:00:00 25.2 11 Sur 27 Sudoeste 0 928.7 -2.1 20
2019-06-08 16:00:00 25 11 Sur 30 Sudoeste 0 929.5 -1.7 21
2019-06-08 15:00:00 24.1 11 Sur 33 Sudeste 0 930.1 -1.7 24
2019-06-08 14:00:00 23 9 Sur 29 Sur 0 930.8 -1.4 27
2019-06-08 13:00:00 22.1 11 Sudeste 28 Sudeste 0 931.2 -1.2 29
2019-06-08 12:00:00 20.6 11 Sudeste 31 Sudeste 0 931.8 -0.8 29
2019-06-08 11:00:00 18.7 13 Sudeste 25 Este 0 932.2 -0.4 29
2019-06-08 10:00:00 18 11 Sudeste 24 Sudeste 0 932.4 0 29
2019-06-08 09:00:00 16.7 9 Este 18 Nordeste 0 932.6 0.1 28
2019-06-08 08:00:00 14.8 6 Este 19 Nordeste 0 932.6 0.1 32
2019-06-08 07:00:00 11.5 6 Nordeste 13 Nordeste 0 932.4 -0.3 36
2019-06-08 06:00:00 10 3 Nordeste 6 Nordeste 0 932.5 0 39
2019-06-08 05:00:00 10 3 Nordeste 6 Nordeste 0 932.5 0.2 40
2019-06-08 04:00:00 9.5 0 Calma 17 Sudeste 0 932.7 0.5 38
2019-06-08 03:00:00 10 0 Calma 4 Noroeste 0 932.5 0.3 36
2019-06-08 02:00:00 11.5 0 Calma 6 Sur 0 932.3 0.5 33
2019-06-08 01:00:00 11.9 0 Calma 5 Sudoeste 0 932.2 0.9 30
2019-06-08 00:00:00 13.3 0 Calma 18 Nordeste 0 932.2 1.4 27
2019-06-07 23:00:00 16.3 10 Norte 23 Norte 0 931.8 1.6 25
2019-06-07 22:00:00 16.8 12 Norte 24 Norte 0 931.3 1.4 24
2019-06-07 21:00:00 19 6 Sudoeste 19 Sudoeste 0 930.8 1 23
2019-06-07 20:00:00 19.6 7 Sudoeste 21 Sur 0 930.2 0.6 23
2019-06-07 19:00:00 20.1 4 Noroeste 16 Oeste 0 929.9 0.3 22
2019-06-07 18:00:00 18.4 11 Noroeste 24 Noroeste 0 929.8 0.3 23
2019-06-07 17:00:00 20.3 10 Oeste 26 Noroeste 0 929.6 0.1 22
2019-06-07 16:00:00 19.6 8 Noroeste 26 Noroeste 0 929.6 0.4 23
2019-06-07 15:00:00 17.1 10 Noroeste 30 Noroeste 0 929.5 0.4 24
2019-06-07 14:00:00 16.7 6 Noroeste 31 Oeste 0 929.5 0.9 26
2019-06-07 13:00:00 15.7 13 Oeste 29 Noroeste 0 929.2 1.5 31
2019-06-07 12:00:00 13.2 11 Noroeste 32 Noroeste 0 929.1 1.8 37
2019-06-07 11:00:00 12.2 6 Noroeste 32 Oeste 0 928.6 2.1 42
2019-06-07 10:00:00 11.8 13 Norte 35 Norte 0 927.7 2 42
2019-06-07 09:00:00 10.5 13 Noroeste 32 Noroeste 0 927.3 2.6 45
2019-06-07 08:00:00 9.2 14 Noroeste 36 Norte 0 926.5 2.8 48
2019-06-07 07:00:00 8.3 8 Noroeste 35 Noroeste 0 925.7 2.8 52
2019-06-07 06:00:00 9 14 Noroeste 34 Norte 0 924.7 2 50
2019-06-07 05:00:00 9.6 8 Noroeste 35 Noroeste 0 923.7 1.2 70
2019-06-07 04:00:00 9.9 17 Norte 45 Sudoeste 0.3 922.9 0.8 78
2019-06-07 03:00:00 12.1 23 Sudoeste 48 Sudoeste 0 922.7 0.7 82
2019-06-07 02:00:00 12.5 20 Sudoeste 43 Sudoeste 0.2 922.5 1 83
2019-06-07 01:00:00 14.5 18 Oeste 37 Oeste 0 922.1 1 57
2019-06-07 00:00:00 16.5 14 Oeste 32 Oeste 0 922 0.7 45
2019-06-06 23:00:00 17.8 16 Sudoeste 31 Sudoeste 0 921.5 0.6 36
2019-06-06 22:00:00 17.9 14 Sudoeste 35 Sudoeste 0 921.1 0.1 34
2019-06-06 21:00:00 18.8 15 Sudoeste 33 Sudoeste 0 921.3 -0.3 33
2019-06-06 20:00:00 20 22 Sudoeste 40 Sudoeste 0 920.9 -2 30
2019-06-06 19:00:00 20.1 20 Sudoeste 39 Sudoeste 0 921 -2.5 30
2019-06-06 18:00:00 20.6 20 Sudoeste 43 Sudoeste 0 921.6 -2.4 30
2019-06-06 17:00:00 20.4 16 Sudoeste 41 Sudoeste 0 922.9 -1.8 30
2019-06-06 16:00:00 20 15 Sudoeste 36 Sudoeste 0 923.5 -1.6 30
2019-06-06 15:00:00 19.3 16 Sudoeste 37 Sudoeste 0 924 -1.5 29
2019-06-06 14:00:00 18.9 14 Sudoeste 36 Sur 0 924.7 -0.9 29
2019-06-06 13:00:00 17.1 18 Sur 29 Sudoeste 0 925.1 -0.8 35
2019-06-06 12:00:00 16.1 8 Sudoeste 31 Sur 0 925.5 -0.6 41
2019-06-06 11:00:00 14.9 14 Sur 24 Sur 0 925.6 -0.5 43
2019-06-06 10:00:00 14.2 8 Sur 16 Sudoeste 0 925.9 -0.2 45
2019-06-06 09:00:00 12.9 2 Sudeste 8 Este 0 926.1 0 48
2019-06-06 08:00:00 9.7 0 Calma -- -- -- 926.1 -0.1 55
2019-06-06 07:00:00 6.9 0 Calma 4 Nordeste 0 926.1 -0.1 58
2019-06-06 06:00:00 8.7 2 Este 14 Norte 0 926.1 -0.2 52
2019-06-06 05:00:00 10.7 7 Norte 16 Norte 0 926.2 -0.1 48
2019-06-06 04:00:00 11.2 7 Norte 19 Nordeste 0 926.2 -0.1 46
2019-06-06 03:00:00 12 6 Noroeste 23 Noroeste 0 926.3 -0.2 46
2019-06-06 02:00:00 12.9 8 Norte 26 Nordeste 0 926.3 0.1 44
2019-06-06 01:00:00 13.5 11 Norte 23 Norte 0 926.3 0.7 41
2019-06-06 00:00:00 14.6 5 Noroeste 22 Noroeste 0 926.5 1.2 38
2019-06-05 23:00:00 15.1 4 Noroeste 14 Noroeste 0 926.2 1.2 33
2019-06-05 22:00:00 16.4 6 Noroeste 19 Norte 0 925.6 0.8 31
2019-06-05 21:00:00 17.3 9 Noroeste 23 Norte 0 925.3 0.2 30
2019-06-05 20:00:00 18.1 6 Noroeste 25 Nordeste 0 925 -0.3 30
2019-06-05 19:00:00 19 8 Noroeste 26 Noroeste 0 924.8 -0.7 29
2019-06-05 18:00:00 18.1 5 Norte 31 Norte 0 925.1 -0.6 31
2019-06-05 17:00:00 18.9 9 Noroeste 30 Norte 0 925.3 -0.3 30
2019-06-05 16:00:00 17.4 9 Noroeste 34 Nordeste 0 925.5 -0.6 33
2019-06-05 15:00:00 17.9 11 Noroeste 36 Noroeste 0 925.7 0.3 35
2019-06-05 14:00:00 17.2 14 Oeste 38 Noroeste 0 925.6 0.8 39
2019-06-05 13:00:00 14.9 17 Oeste 38 Oeste 0 926.1 1.4 42
2019-06-05 12:00:00 14.7 12 Noroeste 43 Norte 0 925.4 1.3 44
2019-06-05 11:00:00 13.5 15 Noroeste 44 Norte 0 924.8 1.5 46
2019-06-05 10:00:00 12.4 13 Noroeste 41 Norte 0 924.7 2.2 50
2019-06-05 09:00:00 11.2 13 Norte 42 Noroeste 0 924.1 1.9 54
2019-06-05 08:00:00 11.1 18 Norte 46 Norte 0 923.3 1.4 56
2019-06-05 07:00:00 10.8 14 Norte 38 Norte 0 922.5 0.8 58
2019-06-05 06:00:00 11 12 Norte 40 Noroeste 0 922.2 0.4 57
2019-06-05 05:00:00 11.9 13 Norte 46 Noroeste 0 921.9 0 56
2019-06-05 04:00:00 13.4 11 Norte 37 Noroeste 0 921.7 -0.2 52
2019-06-05 03:00:00 15.4 13 Noroeste 34 Noroeste 0 921.8 -0.3 51
2019-06-05 02:00:00 16.3 8 Noroeste 20 Noroeste 0 921.9 0 51
2019-06-05 01:00:00 16.8 6 Noroeste 16 Oeste 0 921.9 0.4 52
2019-06-05 00:00:00 18.1 8 Oeste 17 Noroeste 0 922.1 0.2 49
2019-06-04 23:00:00 19.1 9 Noroeste 22 Norte 0 921.9 -0.2 46
2019-06-04 22:00:00 20.3 6 Norte 19 Sudoeste 0 921.5 -0.9 41
2019-06-04 21:00:00 22 10 Oeste 27 Sudoeste 0 921.9 -0.5 37
2019-06-04 20:00:00 22.1 12 Sudoeste 31 Sudoeste 0 922.1 -0.6 37
2019-06-04 19:00:00 23 17 Sudoeste 37 Sudoeste 0 922.4 -0.5 36
2019-06-04 18:00:00 24.9 16 Sudoeste 43 Sudoeste 0 922.4 -1 31
2019-06-04 17:00:00 25.5 17 Sudoeste 37 Sudoeste 0 922.7 -1.2 30
2019-06-04 16:00:00 25.7 26 Sudoeste 40 Sudoeste 0 922.9 -1.8 29
2019-06-04 15:00:00 25.7 17 Sudoeste 38 Sudoeste 0 923.4 -1.4 32
2019-06-04 14:00:00 23.7 17 Oeste 41 Sudoeste 0 923.9 -1.2 32
2019-06-04 13:00:00 23 20 Sudoeste 35 Sudoeste 0 924.7 -0.8 33
2019-06-04 12:00:00 22.3 16 Sudoeste 33 Sudoeste 0 924.8 -0.4 35
2019-06-04 11:00:00 21.6 15 Sudoeste 27 Sudoeste 0 925.1 0.3 43
2019-06-04 10:00:00 20 13 Sudoeste 24 Sur 0 925.5 0.9 47
2019-06-04 09:00:00 18.7 13 Sudoeste 27 Sudoeste 0 925.2 0.8 54
2019-06-04 08:00:00 19 13 Oeste 34 Oeste 0 924.8 0.4 52
2019-06-04 07:00:00 18.7 14 Sudoeste 30 Oeste 0 924.6 -0.3 60
2019-06-04 06:00:00 17.5 10 Sudoeste 18 Sudoeste 0 924.4 -0.8 49
2019-06-04 05:00:00 19.7 7 Oeste 15 Oeste 0 924.4 -1.6 36
2019-06-04 04:00:00 19.2 4 Oeste 13 Noroeste 0 924.9 -1.5 30
2019-06-04 03:00:00 21.9 8 Oeste 26 Noroeste 0 925.2 -1.3 27
2019-06-04 02:00:00 21.2 7 Noroeste 12 Noroeste 0 926 -0.4 26
2019-06-04 01:00:00 21.7 5 Noroeste 12 Noroeste 0 926.4 0.1 26
2019-06-04 00:00:00 22.7 6 Noroeste 13 Noroeste 0 926.5 0.2 23
2019-06-03 23:00:00 24.4 8 Noroeste 28 Oeste 0 926.4 -0.3 22
2019-06-03 22:00:00 26.8 11 Oeste 26 Oeste 0 926.3 -0.6 20
2019-06-03 21:00:00 27.6 8 Oeste 31 Oeste 0 926.3 -0.8 20
2019-06-03 20:00:00 28.6 13 Oeste 31 Noroeste 0 926.7 -0.9 19
2019-06-03 19:00:00 29.8 15 Oeste 33 Sudoeste 0 926.9 -1 20
2019-06-03 18:00:00 29.9 15 Oeste 38 Sudoeste 0 927.1 -1.4 19
2019-06-03 17:00:00 29.7 17 Oeste 49 Oeste 0 927.6 -1.3 19
2019-06-03 16:00:00 29.9 18 Sudoeste 45 Sudoeste 0 927.9 -1.4 20
2019-06-03 15:00:00 29.1 21 Sudoeste 42 Sudoeste 0 928.5 -1.1 20
2019-06-03 14:00:00 28.8 14 Oeste 31 Sudoeste 0 928.9 -0.6 22
2019-06-03 13:00:00 28.8 17 Sudoeste 34 Sur 0 929.3 -0.4 23
2019-06-03 12:00:00 27.1 7 Sur 19 Sudoeste 0 929.6 0.1 27
2019-06-03 11:00:00 25.6 4 Sur 13 Sudeste 0 929.5 0.1 29
2019-06-03 10:00:00 24.2 5 Este 12 Sudeste 0 929.7 0.7 31
2019-06-03 09:00:00 22.6 4 Sudeste 6 Sudeste 0 929.5 0.6 32
2019-06-03 08:00:00 19.5 3 Sudeste 6 Sudeste 0 929.4 0.6 36
2019-06-03 07:00:00 18.1 0 Calma 7 Nordeste 0 929 0.1 35
2019-06-03 06:00:00 19.6 3 Nordeste 5 Sudeste 0 928.9 0 33
2019-06-03 05:00:00 19.6 3 Nordeste 13 Norte 0 928.8 -0.3 31
2019-06-03 04:00:00 22.1 8 Noroeste 14 Noroeste 0 928.9 -0.5 29
2019-06-03 03:00:00 21.3 3 Sur 28 Norte 0 928.9 -0.5 28
2019-06-03 02:00:00 23.9 16 Norte 34 Norte 0 929.1 -0.2 26
2019-06-03 01:00:00 25.6 11 Noroeste 23 Noroeste 0 929.4 0.5 24
2019-06-03 00:00:00 25.8 5 Noroeste 18 Norte 0 929.4 0.6 23
2019-06-02 23:00:00 27.1 8 Norte 24 Noroeste 0 929.3 0.8 22
2019-06-02 22:00:00 27.1 5 Noroeste 19 Oeste 0 928.9 0.6 23
2019-06-02 21:00:00 28.6 8 Oeste 23 Noroeste 0 928.8 0.3 22
2019-06-02 20:00:00 29.3 10 Oeste 30 Sudoeste 0 928.5 -0.1 21
2019-06-02 19:00:00 30.7 16 Sudoeste 29 Sudoeste 0 928.3 -0.8 21
2019-06-02 18:00:00 31 9 Oeste 28 Oeste 0 928.5 -1.2 21
2019-06-02 17:00:00 31.7 11 Sudoeste 32 Sur 0 928.6 -2.2 22
2019-06-02 16:00:00 31.7 8 Sudoeste 28 Sudoeste 0 929.1 -2.3 22
2019-06-02 15:00:00 31 12 Sur 25 Sudoeste 0 929.7 -1.8 23
2019-06-02 14:00:00 29.3 10 Sur 21 Sur 0 930.8 -1 25
2019-06-02 13:00:00 28.5 8 Sudeste 19 Sudeste 0 931.4 -0.5 26
2019-06-02 12:00:00 27 6 Sudeste 16 Sudeste 0 931.5 -0.3 28
2019-06-02 11:00:00 25.1 7 Este 19 Sudeste 0 931.8 0.1 29
2019-06-02 10:00:00 22.8 7 Este 17 Sudeste 0 931.9 0.3 31
2019-06-02 09:00:00 21.6 9 Este 15 Este 0 931.8 0.5 32
2019-06-02 08:00:00 19.5 7 Este 13 Nordeste 0 931.7 0.6 33
2019-06-02 07:00:00 17.6 8 Nordeste 17 Nordeste 0 931.6 1.2 33
2019-06-02 06:00:00 18.5 6 Nordeste 17 Nordeste 0 931.3 0.6 32
2019-06-02 05:00:00 20.4 7 Nordeste 30 Norte 0 931.1 0.7 30
2019-06-02 04:00:00 24.1 13 Norte 27 Norte 0 930.4 -0.3 28
2019-06-02 03:00:00 24.6 8 Norte 26 Nordeste 0 930.7 -0.2 27
2019-06-02 02:00:00 25.2 7 Noroeste 19 Noroeste 0 930.4 -0.2 27
2019-06-02 01:00:00 21.2 0 Calma -- -- -- 930.7 0.6 31
2019-06-02 00:00:00 21 2 Nordeste 8 Noroeste 0 930.9 0.9 31
2019-06-01 23:00:00 23.9 4 Noroeste 12 Noroeste 0 930.6 1 27
2019-06-01 22:00:00 26.3 6 Noroeste 21 Noroeste 0 930.1 0.3 24
2019-06-01 21:00:00 29.1 4 Sudoeste 20 Sudoeste 0 930 -0.1 20
2019-06-01 20:00:00 30.3 9 Sur 22 Sudoeste 0 929.6 -1 19
2019-06-01 19:00:00 31.2 8 Sur 23 Sudeste 0 929.8 -1.6 20
2019-06-01 18:00:00 31.2 6 Sur 21 Sudeste 0 930.1 -1.9 19
2019-06-01 17:00:00 31.6 4 Sudoeste 23 Sudoeste 0 930.6 -2.3 20
2019-06-01 16:00:00 31.1 5 Sudoeste 22 Sudoeste 0 931.4 -2.2 22
2019-06-01 15:00:00 29.1 11 Sudeste 22 Sudeste 0 932 -1.9 25
2019-06-01 14:00:00 28 5 Sur 17 Sudeste 0 932.9 -1.3 26
2019-06-01 13:00:00 26.4 8 Sur 19 Sur 0 933.6 -0.8 29
2019-06-01 12:00:00 24.2 7 Este 18 Este 0 933.9 -0.3 32
2019-06-01 11:00:00 22.9 7 Sudeste 19 Sudeste 0 934.2 0.2 35
2019-06-01 10:00:00 21.1 9 Sudeste 18 Sudeste 0 934.4 0.7 36
2019-06-01 09:00:00 20.1 5 Nordeste 15 Nordeste 0 934.2 1 36
2019-06-01 08:00:00 18.1 5 Nordeste 12 Nordeste 0 934 0.4 37
2019-06-01 07:00:00 16.1 4 Nordeste 12 Nordeste 0 933.7 0.5 37
2019-06-01 06:00:00 16.8 6 Nordeste 13 Nordeste 0 933.2 0.1 35
2019-06-01 05:00:00 18 6 Nordeste 16 Este 0 933.6 0.8 32
2019-06-01 04:00:00 18.3 8 Nordeste 16 Nordeste 0 933.2 0.3 31
2019-06-01 03:00:00 19.1 5 Nordeste 9 Nordeste 0 933.1 0.1 31
2019-06-01 02:00:00 17.8 4 Nordeste 9 Nordeste 0 932.8 0.1 33
2019-06-01 01:00:00 18.5 3 Nordeste 6 Nordeste 0 932.9 0.5 31
2019-06-01 00:00:00 19.2 3 Nordeste 8 Nordeste 0 933 1 30
2019-05-31 23:00:00 21.4 3 Nordeste 7 Nordeste 0 932.7 0.7 27
2019-05-31 22:00:00 23.1 0 Calma 9 Sur 0 932.4 0.3 25
2019-05-31 21:00:00 27.8 9 Sudoeste 17 Sudoeste 0 932 -0.3 21
2019-05-31 20:00:00 28.9 9 Sur 20 Sur 0 932 -0.8 21
2019-05-31 19:00:00 30 6 Sur 29 Sudeste 0 932.1 -1.3 22
2019-05-31 18:00:00 30 6 Sudeste 19 Sudeste 0 932.3 -1.6 22
2019-05-31 17:00:00 29.4 9 Sudeste 24 Sudoeste 0 932.8 -1.7 22
2019-05-31 16:00:00 29.7 6 Sudeste 21 Sur 0 933.4 -- 23
2019-05-31 15:00:00 28.3 4 Sur 26 Sudoeste 0 933.9 -- 25
2019-05-31 14:00:00 28.2 5 Sur -- -- -- 934.5 -- 26
2019-05-31 13:00:00 -- -- -- -- -- -- -- -- --
2019-05-31 12:00:00 -- -- -- -- -- -- -- -- --
2019-05-31 11:00:00 -- -- -- -- -- -- -- -- --
2019-05-31 10:00:00 -- -- -- -- -- -- -- -- --
2019-05-31 09:00:00 -- -- -- -- -- -- -- -- --
2019-05-31 08:00:00 -- -- -- -- -- -- -- -- --
2019-05-31 07:00:00 -- -- -- -- -- -- -- -- --
2019-05-31 06:00:00 -- -- -- -- -- -- -- -- --
2019-05-31 05:00:00 -- -- -- -- -- -- -- -- --
2019-05-31 04:00:00 -- -- -- -- -- -- -- -- --
2019-05-31 03:00:00 -- -- -- -- -- -- -- -- --
2019-05-31 02:00:00 -- -- -- -- -- -- -- -- --
2019-05-31 01:00:00 -- -- -- -- -- -- -- -- --
2019-05-31 00:00:00 -- -- -- -- -- -- -- -- --
2019-05-30 23:00:00 -- -- -- -- -- -- -- -- --
2019-05-30 22:00:00 -- -- -- -- -- -- -- -- --
2019-05-30 21:00:00 -- -- -- -- -- -- -- -- --
2019-05-30 20:00:00 -- -- -- -- -- -- -- -- --
2019-05-30 19:00:00 -- -- -- -- -- -- -- -- --
2019-05-30 18:00:00 -- -- -- -- -- -- -- -- --
2019-05-30 17:00:00 -- -- -- -- -- -- -- -- --
2019-05-30 16:00:00 -- -- -- -- -- -- -- -- --
2019-05-30 15:00:00 -- -- -- -- -- -- -- -- --
2019-05-30 14:00:00 -- -- -- -- -- -- -- -- --
2019-05-30 13:00:00 -- -- -- -- -- -- -- -- --
2019-05-30 12:00:00 -- -- -- -- -- -- -- -- --
2019-05-30 11:00:00 -- -- -- -- -- -- -- -- --
2019-05-30 10:00:00 -- -- -- -- -- -- -- -- --
2019-05-30 09:00:00 -- -- -- -- -- -- -- -- --
2019-05-30 08:00:00 -- -- -- -- -- -- -- -- --
2019-05-30 07:00:00 -- -- -- -- -- -- -- -- --
2019-05-30 06:00:00 -- -- -- -- -- -- -- -- --
2019-05-30 05:00:00 -- -- -- -- -- -- -- -- --
2019-05-30 04:00:00 -- -- -- -- -- -- -- -- --
2019-05-30 03:00:00 -- -- -- -- -- -- -- -- --
2019-05-30 02:00:00 -- -- -- -- -- -- -- -- --
2019-05-30 01:00:00 -- -- -- -- -- -- -- -- --
2019-05-30 00:00:00 -- -- -- -- -- -- -- -- --
2019-05-29 23:00:00 -- -- -- -- -- -- -- -- --
2019-05-29 22:00:00 -- -- -- -- -- -- -- -- --
2019-05-29 21:00:00 -- -- -- -- -- -- -- -- --
2019-05-29 20:00:00 -- -- -- -- -- -- -- -- --
2019-05-29 19:00:00 -- -- -- -- -- -- -- -- --
2019-05-29 18:00:00 -- -- -- -- -- -- -- -- --
2019-05-29 17:00:00 -- -- -- -- -- -- -- -- --
2019-05-29 16:00:00 -- -- -- -- -- -- -- -- --
2019-05-29 15:00:00 -- -- -- -- -- -- -- -- --
2019-05-29 14:00:00 -- -- -- -- -- -- -- -- --
2019-05-29 13:00:00 -- -- -- -- -- -- -- -- --
2019-05-29 12:00:00 -- -- -- -- -- -- -- -- --
2019-05-29 11:00:00 -- -- -- -- -- -- -- -- --
2019-05-29 10:00:00 -- -- -- -- -- -- -- -- --
2019-05-29 09:00:00 -- -- -- -- -- -- -- -- --
2019-05-29 08:00:00 -- -- -- -- -- -- -- -- --
2019-05-29 07:00:00 -- -- -- -- -- -- -- -- --
2019-05-29 06:00:00 -- -- -- -- -- -- -- -- --
2019-05-29 05:00:00 -- -- -- -- -- -- -- -- --
2019-05-29 04:00:00 -- -- -- -- -- -- -- -- --
2019-05-29 03:00:00 -- -- -- -- -- -- -- -- --
2019-05-29 02:00:00 -- -- -- -- -- -- -- -- --
2019-05-29 01:00:00 -- -- -- -- -- -- -- -- --
2019-05-29 00:00:00 -- -- -- -- -- -- -- -- --
2019-05-28 23:00:00 -- -- -- -- -- -- -- -- --
2019-05-28 22:00:00 -- -- -- -- -- -- -- -- --
2019-05-28 21:00:00 -- -- -- -- -- -- -- -- --
2019-05-28 20:00:00 -- -- -- -- -- -- -- -- --
2019-05-28 19:00:00 -- -- -- -- -- -- -- -- --
2019-05-28 18:00:00 -- -- -- -- -- -- -- -- --
2019-05-28 17:00:00 -- -- -- -- -- -- -- -- --
2019-05-28 16:00:00 -- -- -- -- -- -- -- -- --
2019-05-28 15:00:00 -- -- -- -- -- -- -- -- --
2019-05-28 14:00:00 -- -- -- -- -- -- -- -- --
2019-05-28 13:00:00 -- -- -- -- -- -- -- -- --
2019-05-28 12:00:00 -- -- -- -- -- -- -- -- --
2019-05-28 11:00:00 -- -- -- -- -- -- -- -- --
2019-05-28 10:00:00 -- -- -- -- -- -- -- -- --
2019-05-28 09:00:00 -- -- -- -- -- -- -- -- --
2019-05-28 08:00:00 -- -- -- -- -- -- -- -- --
2019-05-28 07:00:00 -- -- -- -- -- -- -- -- --
2019-05-28 06:00:00 -- -- -- -- -- -- -- -- --
2019-05-28 05:00:00 -- -- -- -- -- -- -- -- --
2019-05-28 04:00:00 -- -- -- -- -- -- -- -- --
2019-05-28 03:00:00 -- -- -- -- -- -- -- -- --
2019-05-28 02:00:00 -- -- -- -- -- -- -- -- --
2019-05-28 01:00:00 -- -- -- -- -- -- -- -- --
2019-05-28 00:00:00 -- -- -- -- -- -- -- -- --
2019-05-27 23:00:00 -- -- -- -- -- -- -- -- --
2019-05-27 22:00:00 -- -- -- -- -- -- -- -- --
2019-05-27 21:00:00 -- -- -- -- -- -- -- -- --
2019-05-27 20:00:00 -- -- -- -- -- -- -- -- --
2019-05-27 19:00:00 -- -- -- -- -- -- -- -- --
2019-05-27 18:00:00 -- -- -- -- -- -- -- -- --
2019-05-27 17:00:00 -- -- -- -- -- -- -- -- --
2019-05-27 16:00:00 -- -- -- -- -- -- -- -- --
2019-05-27 15:00:00 -- -- -- -- -- -- -- -- --
2019-05-27 14:00:00 -- -- -- -- -- -- -- -- --
2019-05-27 13:00:00 -- -- -- -- -- -- -- -- --
2019-05-27 12:00:00 -- -- -- -- -- -- -- -- --
2019-05-27 11:00:00 -- -- -- -- -- -- -- -- --
2019-05-27 10:00:00 -- -- -- -- -- -- -- -- --
2019-05-27 09:00:00 -- -- -- -- -- -- -- -- --
2019-05-27 08:00:00 -- -- -- -- -- -- -- -- --
2019-05-27 07:00:00 -- -- -- -- -- -- -- -- --
2019-05-27 06:00:00 -- -- -- -- -- -- -- -- --
2019-05-27 05:00:00 -- -- -- -- -- -- -- -- --
2019-05-27 04:00:00 -- -- -- -- -- -- -- -- --
2019-05-27 03:00:00 -- -- -- -- -- -- -- -- --
2019-05-27 02:00:00 -- -- -- -- -- -- -- -- --
2019-05-27 01:00:00 -- -- -- -- -- -- -- -- --
2019-05-27 00:00:00 -- -- -- -- -- -- -- -- --
2019-05-26 23:00:00 -- -- -- -- -- -- -- -- --
2019-05-26 22:00:00 -- -- -- -- -- -- -- -- --
2019-05-26 21:00:00 -- -- -- -- -- -- -- -- --
2019-05-26 20:00:00 -- -- -- -- -- -- -- -- --
2019-05-26 19:00:00 -- -- -- -- -- -- -- -- --
2019-05-26 18:00:00 -- -- -- -- -- -- -- -- --
2019-05-26 17:00:00 -- -- -- -- -- -- -- -- --
2019-05-26 16:00:00 -- -- -- -- -- -- -- -- --
2019-05-26 15:00:00 -- -- -- -- -- -- -- -- --
2019-05-26 14:00:00 -- -- -- -- -- -- -- -- --
2019-05-26 13:00:00 -- -- -- -- -- -- -- -- --
2019-05-26 12:00:00 -- -- -- -- -- -- -- -- --
2019-05-26 11:00:00 -- -- -- -- -- -- -- -- --
2019-05-26 10:00:00 -- -- -- -- -- -- -- -- --
2019-05-26 09:00:00 -- -- -- -- -- -- -- -- --
2019-05-26 08:00:00 -- -- -- -- -- -- -- -- --
2019-05-26 07:00:00 -- -- -- -- -- -- -- -- --
2019-05-26 06:00:00 -- -- -- -- -- -- -- -- --
2019-05-26 05:00:00 -- -- -- -- -- -- -- -- --
2019-05-26 04:00:00 -- -- -- -- -- -- -- -- --
2019-05-26 03:00:00 -- -- -- -- -- -- -- -- --
2019-05-26 02:00:00 -- -- -- -- -- -- -- -- --
2019-05-26 01:00:00 -- -- -- -- -- -- -- -- --
2019-05-26 00:00:00 -- -- -- -- -- -- -- -- --
2019-05-25 23:00:00 -- -- -- -- -- -- -- -- --
2019-05-25 22:00:00 -- -- -- -- -- -- -- -- --
2019-05-25 21:00:00 -- -- -- -- -- -- -- -- --
2019-05-25 20:00:00 -- -- -- -- -- -- -- -- --
2019-05-25 19:00:00 -- -- -- -- -- -- -- -- --
2019-05-25 18:00:00 -- -- -- -- -- -- -- -- --
2019-05-25 17:00:00 -- -- -- -- -- -- -- -- --
2019-05-25 16:00:00 -- -- -- -- -- -- -- -- --
2019-05-25 15:00:00 -- -- -- -- -- -- -- -- --
2019-05-25 14:00:00 20.1 5 Noroeste 17 Oeste 0 930.7 -0.6 35
2019-05-25 13:00:00 19.8 5 Sur -- -- -- 931 -0.5 37
2019-05-25 12:00:00 18.1 3 Norte -- -- -- 931.4 -- 40
2019-05-25 11:00:00 17.6 5 Norte 20 Noroeste 0 931.3 -- 43
2019-05-25 10:00:00 15.3 6 Norte -- -- -- 931.5 -- 47
2019-05-25 09:00:00 -- -- -- -- -- -- -- -- --
2019-05-25 08:00:00 -- -- -- -- -- -- -- -- --
2019-05-25 07:00:00 -- -- -- -- -- -- -- -- --
2019-05-25 06:00:00 -- -- -- -- -- -- -- -- --
2019-05-25 05:00:00 -- -- -- -- -- -- -- -- --
2019-05-25 04:00:00 -- -- -- -- -- -- -- -- --
2019-05-25 03:00:00 -- -- -- -- -- -- -- -- --
2019-05-25 02:00:00 -- -- -- -- -- -- -- -- --
2019-05-25 01:00:00 -- -- -- -- -- -- -- -- --
2019-05-25 00:00:00 -- -- -- -- -- -- -- -- --
2019-05-24 23:00:00 -- -- -- -- -- -- -- -- --
2019-05-24 22:00:00 -- -- -- -- -- -- -- -- --
2019-05-24 21:00:00 -- -- -- -- -- -- -- -- --
2019-05-24 20:00:00 -- -- -- -- -- -- -- -- --
2019-05-24 19:00:00 -- -- -- -- -- -- -- -- --
2019-05-24 18:00:00 -- -- -- -- -- -- -- -- --
2019-05-24 17:00:00 -- -- -- -- -- -- -- -- --
2019-05-24 16:00:00 -- -- -- -- -- -- -- -- --
2019-05-24 15:00:00 -- -- -- -- -- -- -- -- --
2019-05-24 14:00:00 -- -- -- -- -- -- -- -- --
2019-05-24 13:00:00 -- -- -- -- -- -- -- -- --
2019-05-24 12:00:00 -- -- -- -- -- -- -- -- --
2019-05-24 11:00:00 -- -- -- -- -- -- -- -- --
2019-05-24 10:00:00 -- -- -- -- -- -- -- -- --
2019-05-24 09:00:00 -- -- -- -- -- -- -- -- --
2019-05-24 08:00:00 -- -- -- -- -- -- -- -- --
2019-05-24 07:00:00 -- -- -- -- -- -- -- -- --
2019-05-24 06:00:00 -- -- -- -- -- -- -- -- --
2019-05-24 05:00:00 -- -- -- -- -- -- -- -- --
2019-05-24 04:00:00 -- -- -- -- -- -- -- -- --
2019-05-24 03:00:00 -- -- -- -- -- -- -- -- --
2019-05-24 02:00:00 -- -- -- -- -- -- -- -- --
2019-05-24 01:00:00 -- -- -- -- -- -- -- -- --
2019-05-24 00:00:00 -- -- -- -- -- -- -- -- --
2019-05-23 23:00:00 -- -- -- -- -- -- -- -- --
2019-05-23 22:00:00 -- -- -- -- -- -- -- -- --
2019-05-23 21:00:00 -- -- -- -- -- -- -- -- --
2019-05-23 20:00:00 -- -- -- -- -- -- -- -- --
2019-05-23 19:00:00 -- -- -- -- -- -- -- -- --
2019-05-23 18:00:00 -- -- -- -- -- -- -- -- --
2019-05-23 17:00:00 -- -- -- -- -- -- -- -- --
2019-05-23 16:00:00 -- -- -- -- -- -- -- -- --
2019-05-23 15:00:00 -- -- -- -- -- -- -- -- --
2019-05-23 14:00:00 -- -- -- -- -- -- -- -- --
2019-05-23 13:00:00 24 10 Oeste -- -- -- 929.5 -0.7 32
2019-05-23 12:00:00 23.1 6 Sur -- -- -- 930.1 0 33
2019-05-23 11:00:00 21.7 0 Calma 7 Este 0 930.1 0.2 35
2019-05-23 10:00:00 20.4 4 Sudeste 9 Sur 0 930.2 1 37
2019-05-23 09:00:00 19.9 6 Sur 10 Sudoeste 0 930.1 1.1 40
2019-05-23 08:00:00 17.4 2 Sudeste 8 Este 0 929.9 0.9 45
2019-05-23 07:00:00 16 2 Este 21 Norte 0 929.2 0.4 43
2019-05-23 06:00:00 17.5 10 Noroeste 25 Nordeste 0 929 0.1 42
2019-05-23 05:00:00 18.8 14 Norte 35 Nordeste 0 929 0.2 37
2019-05-23 04:00:00 19.8 9 Norte 23 Norte 0 928.8 -0.3 33
2019-05-23 03:00:00 19.6 8 Noroeste 28 Norte 0 928.9 -0.4 32
2019-05-23 02:00:00 20.9 15 Norte 30 Norte 0 928.8 -0.4 32
2019-05-23 01:00:00 21.1 14 Norte 25 Norte 0 929.1 0.2 32
2019-05-23 00:00:00 19.3 4 Noroeste 10 Noroeste 0 929.3 0.9 38
2019-05-22 23:00:00 18.1 0 Calma 9 Noroeste 0 929.2 1 36
2019-05-22 22:00:00 20.3 4 Noroeste 17 Oeste 0 928.9 1 33
2019-05-22 21:00:00 22.7 8 Oeste 18 Oeste 0 928.4 0.3 29
2019-05-22 20:00:00 24.2 9 Oeste 24 Sudoeste 0 928.2 -0.1 28
2019-05-22 19:00:00 25.2 12 Sudoeste 23 Sudoeste 0 927.9 -0.7 26
2019-05-22 18:00:00 24.5 10 Sudoeste 24 Sudoeste 0 928.1 -0.8 26
2019-05-22 17:00:00 24.8 13 Sur 28 Sur 0 928.3 -1.2 26
2019-05-22 16:00:00 25.6 10 Sur 23 Sudeste 0 928.6 -1.3 26
2019-05-22 15:00:00 24.8 7 Sudeste 24 Sur 0 928.9 -1.2 27
2019-05-22 14:00:00 23 5 Sudeste 24 Sudeste 0 929.5 -0.6 29
2019-05-22 13:00:00 22.9 9 Sudeste 21 Sudeste 0 929.9 -0.4 29
2019-05-22 12:00:00 22.4 7 Sur 19 Sur 0 930.1 0 32
2019-05-22 11:00:00 20.9 4 Sur 12 Oeste 0 930.1 0.3 36
2019-05-22 10:00:00 19.1 2 Sudeste 10 Sudeste 0 930.3 0.8 38
2019-05-22 09:00:00 17.4 5 Sudeste 9 Sudeste 0 930.1 0.6 41
2019-05-22 08:00:00 14.3 0 Calma 7 Nordeste 0 929.8 0.6 51
2019-05-22 07:00:00 10.1 2 Nordeste 6 Nordeste 0 929.5 0.2 57
2019-05-22 06:00:00 10.1 3 Noroeste 8 Nordeste 0 929.5 0.1 52
2019-05-22 05:00:00 12.8 5 Nordeste 12 Nordeste 0 929.2 0.5 46
2019-05-22 04:00:00 13.6 6 Nordeste 13 Nordeste 0 929.3 -- 44
2019-05-22 03:00:00 14.9 6 Nordeste 22 Este 0 929.4 -- 42
2019-05-22 02:00:00 12.2 0 Calma -- -- -- 928.7 -- 48
2019-05-22 01:00:00 -- -- -- -- -- -- -- -- --
2019-05-22 00:00:00 -- -- -- -- -- -- -- -- --
2019-05-21 23:00:00 -- -- -- -- -- -- -- -- --
2019-05-21 22:00:00 -- -- -- -- -- -- -- -- --
2019-05-21 21:00:00 -- -- -- -- -- -- -- -- --
2019-05-21 20:00:00 -- -- -- -- -- -- -- -- --
2019-05-21 19:00:00 -- -- -- -- -- -- -- -- --
2019-05-21 18:00:00 -- -- -- -- -- -- -- -- --
2019-05-21 17:00:00 -- -- -- -- -- -- -- -- --
2019-05-21 16:00:00 -- -- -- -- -- -- -- -- --
2019-05-21 15:00:00 -- -- -- -- -- -- -- -- --
2019-05-21 14:00:00 -- -- -- -- -- -- -- -- --
2019-05-21 13:00:00 -- -- -- -- -- -- -- -- --
2019-05-21 12:00:00 -- -- -- -- -- -- -- -- --
2019-05-21 11:00:00 -- -- -- -- -- -- -- -- --
2019-05-21 10:00:00 -- -- -- -- -- -- -- -- --
2019-05-21 09:00:00 -- -- -- -- -- -- -- -- --
2019-05-21 08:00:00 -- -- -- -- -- -- -- -- --
2019-05-21 07:00:00 -- -- -- -- -- -- -- -- --
2019-05-21 06:00:00 -- -- -- -- -- -- -- -- --
2019-05-21 05:00:00 -- -- -- -- -- -- -- -- --
2019-05-21 04:00:00 15.2 10 Noroeste 34 Norte 0 925.2 -0.8 34
2019-05-21 03:00:00 15.3 16 Norte 29 Norte 0 925.4 -0.5 33
2019-05-21 02:00:00 15.6 13 Norte 28 Noroeste 0 925.6 -0.1 31
2019-05-21 01:00:00 16.1 14 Norte 25 Norte 0 926 1 30
2019-05-21 00:00:00 16.5 14 Norte 27 Nordeste 0 925.9 1.5 30